createdAt,value
2018-09-18T00:00:48.264Z,77.20
2018-09-18T00:03:16.849Z,77.30
2018-09-18T00:05:45.729Z,76.70
2018-09-18T00:08:14.435Z,77.10
2018-09-18T00:10:43.036Z,77.20
2018-09-18T00:13:11.627Z,77.30
2018-09-18T00:15:40.234Z,77.70
2018-09-18T00:18:08.783Z,77.70
2018-09-18T00:20:37.365Z,77.80
2018-09-18T00:23:06.018Z,78.10
2018-09-18T00:25:35.331Z,78.20
2018-09-18T00:28:03.892Z,78.70
2018-09-18T00:30:32.487Z,78.00
2018-09-18T00:33:01.062Z,78.30
2018-09-18T00:35:29.666Z,78.60
2018-09-18T00:37:58.263Z,78.40
2018-09-18T00:40:26.830Z,78.40
2018-09-18T00:42:55.390Z,78.60
2018-09-18T00:45:23.990Z,78.70
2018-09-18T00:47:52.763Z,78.90
2018-09-18T00:50:21.395Z,78.90
2018-09-18T00:52:49.942Z,79.00
2018-09-18T00:55:18.515Z,78.80
2018-09-18T00:57:47.125Z,78.80
2018-09-18T01:00:15.999Z,78.80
2018-09-18T01:02:44.589Z,78.90
2018-09-18T01:05:13.254Z,79.10
2018-09-18T01:07:41.898Z,79.20
2018-09-18T01:10:10.489Z,79.40
2018-09-18T01:12:39.043Z,79.20
2018-09-18T01:15:08.193Z,79.30
2018-09-18T01:17:36.779Z,79.20
2018-09-18T01:20:05.467Z,79.10
2018-09-18T01:22:34.071Z,79.00
2018-09-18T01:25:02.648Z,79.20
2018-09-18T01:27:31.237Z,78.80
2018-09-18T01:29:59.822Z,79.10
2018-09-18T01:32:28.443Z,79.20
2018-09-18T01:34:57.122Z,79.40
2018-09-18T01:37:25.799Z,79.40
2018-09-18T01:39:54.417Z,79.40
2018-09-18T01:42:23.021Z,79.50
2018-09-18T01:44:51.527Z,79.70
2018-09-18T01:47:20.027Z,79.90
2018-09-18T01:49:48.891Z,79.60
2018-09-18T01:52:17.373Z,79.80
2018-09-18T01:54:45.837Z,79.80
2018-09-18T01:57:14.381Z,79.70
2018-09-18T01:59:42.914Z,79.50
2018-09-18T02:02:11.375Z,79.80
2018-09-18T02:04:39.844Z,79.80
2018-09-18T02:07:08.323Z,80.00
2018-09-18T02:09:36.814Z,80.10
2018-09-18T02:12:05.282Z,80.00
2018-09-18T02:14:33.748Z,80.20
2018-09-18T02:17:02.239Z,80.10
2018-09-18T02:19:30.747Z,80.40
2018-09-18T02:21:59.210Z,80.30
2018-09-18T02:24:27.765Z,80.50
2018-09-18T02:26:56.280Z,80.40
2018-09-18T02:29:24.767Z,80.50
2018-09-18T02:31:53.230Z,80.80
2018-09-18T02:34:21.718Z,80.80
2018-09-18T02:36:50.183Z,81.20
2018-09-18T02:39:18.690Z,81.20
2018-09-18T02:41:47.178Z,81.10
2018-09-18T02:44:15.661Z,81.10
2018-09-18T02:46:44.217Z,81.30
2018-09-18T02:49:12.727Z,81.40
2018-09-18T02:51:41.219Z,81.40
2018-09-18T02:54:09.687Z,81.40
2018-09-18T02:56:38.201Z,81.50
2018-09-18T02:59:06.672Z,81.50
2018-09-18T03:01:35.157Z,81.60
2018-09-18T03:04:03.639Z,81.80
2018-09-18T03:06:32.115Z,81.80
2018-09-18T03:09:00.586Z,81.90
2018-09-18T03:11:29.170Z,81.80
2018-09-18T03:13:57.616Z,82.00
2018-09-18T03:16:26.106Z,82.30
2018-09-18T03:18:54.591Z,82.10
2018-09-18T03:21:23.085Z,82.20
2018-09-18T03:23:51.543Z,82.40
2018-09-18T03:26:20.020Z,82.40
2018-09-18T03:28:48.503Z,82.20
2018-09-18T03:31:16.983Z,82.60
2018-09-18T03:33:45.679Z,82.80
2018-09-18T03:36:14.149Z,82.70
2018-09-18T03:38:42.626Z,82.60
2018-09-18T03:41:11.133Z,82.50
2018-09-18T03:43:39.598Z,82.60
2018-09-18T03:46:08.111Z,82.70
2018-09-18T03:48:36.569Z,82.40
2018-09-18T03:51:05.050Z,82.70
2018-09-18T03:53:33.541Z,82.90
2018-09-18T03:56:02.046Z,82.70
2018-09-18T03:58:30.519Z,82.90
2018-09-18T04:00:59.090Z,83.10
2018-09-18T04:03:27.540Z,83.10
2018-09-18T04:05:56.044Z,83.20
2018-09-18T04:08:25.391Z,83.30
2018-09-18T04:10:53.883Z,83.10
2018-09-18T04:13:22.327Z,83.20
2018-09-18T04:15:50.836Z,83.50
2018-09-18T04:18:22.050Z,83.40
2018-09-18T04:20:50.547Z,83.30
2018-09-18T04:23:18.995Z,83.30
2018-09-18T04:25:47.662Z,83.40
2018-09-18T04:28:16.137Z,83.40
2018-09-18T04:30:44.800Z,83.50
2018-09-18T04:33:13.511Z,83.50
2018-09-18T04:35:42.204Z,83.40
2018-09-18T04:38:10.954Z,83.00
2018-09-18T04:40:39.435Z,83.10
2018-09-18T04:43:07.898Z,83.20
2018-09-18T04:45:36.371Z,83.30
2018-09-18T04:48:05.202Z,83.30
2018-09-18T04:50:33.682Z,83.30
2018-09-18T04:53:02.159Z,83.40
2018-09-18T04:55:30.599Z,83.30
2018-09-18T04:57:59.098Z,83.30
2018-09-18T05:00:27.931Z,83.40
2018-09-18T05:02:56.429Z,83.30
2018-09-18T05:05:24.916Z,83.00
2018-09-18T05:07:53.411Z,83.00
2018-09-18T05:10:21.887Z,83.20
2018-09-18T05:12:50.363Z,83.70
2018-09-18T05:15:18.826Z,83.10
2018-09-18T05:17:47.316Z,83.10
2018-09-18T05:20:15.768Z,83.30
2018-09-18T05:22:44.251Z,83.20
2018-09-18T05:25:12.727Z,83.10
2018-09-18T05:27:41.205Z,83.10
2018-09-18T05:30:09.690Z,83.30
2018-09-18T05:32:38.187Z,83.30
2018-09-18T05:35:06.783Z,83.40
2018-09-18T05:37:35.235Z,83.20
2018-09-18T05:40:03.767Z,83.40
2018-09-18T05:42:32.252Z,83.50
2018-09-18T05:45:00.790Z,83.50
2018-09-18T05:47:29.315Z,83.60
2018-09-18T05:49:57.807Z,83.60
2018-09-18T05:52:26.302Z,83.60
2018-09-18T05:54:54.782Z,83.70
2018-09-18T05:57:23.248Z,83.70
2018-09-18T05:59:51.734Z,83.30
2018-09-18T06:02:20.371Z,83.40
2018-09-18T06:04:48.746Z,83.40
2018-09-18T06:07:17.207Z,83.20
2018-09-18T06:09:45.681Z,83.20
2018-09-18T06:12:14.191Z,83.20
2018-09-18T06:14:42.658Z,83.30
2018-09-18T06:17:11.150Z,83.10
2018-09-18T06:19:39.640Z,83.30
2018-09-18T06:22:08.359Z,83.30
2018-09-18T06:24:36.824Z,82.90
2018-09-18T06:27:05.650Z,82.90
2018-09-18T06:29:34.099Z,83.70
2018-09-18T06:32:02.588Z,82.70
2018-09-18T06:34:31.280Z,82.80
2018-09-18T06:36:59.777Z,82.50
2018-09-18T06:39:28.253Z,82.00
2018-09-18T06:41:56.708Z,81.70
2018-09-18T06:44:25.183Z,82.00
2018-09-18T06:46:53.686Z,82.20
2018-09-18T06:49:22.462Z,82.20
2018-09-18T06:51:51.195Z,82.10
2018-09-18T06:54:19.711Z,82.00
2018-09-18T06:56:48.202Z,82.10
2018-09-18T06:59:16.673Z,82.20
2018-09-18T07:01:45.155Z,81.90
2018-09-18T07:04:13.630Z,81.70
2018-09-18T07:06:42.438Z,81.60
2018-09-18T07:09:11.275Z,81.10
2018-09-18T07:11:40.262Z,81.00
2018-09-18T07:14:08.753Z,80.70
2018-09-18T07:16:37.298Z,80.20
2018-09-18T07:19:05.948Z,80.50
2018-09-18T07:21:34.434Z,80.00
2018-09-18T07:24:02.959Z,79.80
2018-09-18T07:26:31.446Z,78.40
2018-09-18T07:29:00.191Z,78.40
2018-09-18T07:31:28.707Z,78.60
2018-09-18T07:33:57.213Z,77.70
2018-09-18T07:36:25.686Z,77.40
2018-09-18T07:38:54.251Z,77.10
2018-09-18T07:41:22.750Z,77.00
2018-09-18T07:43:51.210Z,76.50
2018-09-18T07:46:19.709Z,76.10
2018-09-18T07:48:48.380Z,75.80
2018-09-18T07:51:16.886Z,76.00
2018-09-18T07:53:45.398Z,75.20
2018-09-18T07:56:13.900Z,74.40
2018-09-18T07:58:42.391Z,73.30
2018-09-18T08:01:11.211Z,73.10
2018-09-18T08:03:39.683Z,72.10
2018-09-18T08:06:08.159Z,72.40
2018-09-18T08:08:36.640Z,70.80
2018-09-18T08:11:05.139Z,71.00
2018-09-18T08:13:33.598Z,71.30
2018-09-18T08:16:02.073Z,70.10
2018-09-18T08:18:30.564Z,69.70
2018-09-18T08:20:59.040Z,69.10
2018-09-18T08:23:27.842Z,68.40
2018-09-18T08:25:56.311Z,68.70
2018-09-18T08:28:24.814Z,69.10
2018-09-18T08:30:53.294Z,67.10
2018-09-18T08:33:21.768Z,66.20
2018-09-18T08:35:50.251Z,66.00
2018-09-18T08:38:18.722Z,65.80
2018-09-18T08:40:47.242Z,64.50
2018-09-18T08:43:15.727Z,64.30
2018-09-18T08:45:44.255Z,64.80
2018-09-18T08:48:13.032Z,63.10
2018-09-18T08:50:41.596Z,62.20
2018-09-18T08:53:10.523Z,62.40
2018-09-18T08:55:38.995Z,62.50
2018-09-18T08:58:07.511Z,62.30
2018-09-18T09:00:36.272Z,60.40
2018-09-18T09:03:04.773Z,59.40
2018-09-18T09:05:33.256Z,59.00
2018-09-18T09:08:01.806Z,58.20
2018-09-18T09:10:30.245Z,56.60
2018-09-18T09:12:58.715Z,56.20
2018-09-18T09:15:27.244Z,56.70
2018-09-18T09:17:55.758Z,56.80
2018-09-18T09:20:24.302Z,56.40
2018-09-18T09:22:52.910Z,56.70
2018-09-18T09:25:21.304Z,57.20
2018-09-18T09:27:49.835Z,57.80
2018-09-18T09:30:18.290Z,56.90
2018-09-18T09:32:46.806Z,57.20
2018-09-18T09:35:15.287Z,57.50
2018-09-18T09:37:43.808Z,56.40
2018-09-18T09:40:12.446Z,56.80
2018-09-18T09:42:40.947Z,57.30
2018-09-18T09:45:09.448Z,56.80
2018-09-18T09:47:37.962Z,56.00
2018-09-18T09:50:07.210Z,56.10
2018-09-18T09:52:35.714Z,57.00
2018-09-18T09:55:04.198Z,56.40
2018-09-18T09:57:32.656Z,56.50
2018-09-18T10:00:01.148Z,55.80
2018-09-18T10:02:30.799Z,55.90
2018-09-18T10:04:59.602Z,56.50
2018-09-18T10:07:28.098Z,55.00
2018-09-18T10:09:56.587Z,54.90
2018-09-18T10:12:25.095Z,53.70
2018-09-18T10:14:53.627Z,54.10
2018-09-18T10:17:22.090Z,53.80
2018-09-18T10:19:50.564Z,53.20
2018-09-18T10:22:19.031Z,53.70
2018-09-18T10:24:47.504Z,53.50
2018-09-18T10:27:15.990Z,53.60
2018-09-18T10:29:44.512Z,52.40
2018-09-18T10:32:13.012Z,51.10
2018-09-18T10:34:41.515Z,51.90
2018-09-18T10:37:09.998Z,52.10
2018-09-18T10:39:38.478Z,52.10
2018-09-18T10:42:07.163Z,52.10
2018-09-18T10:44:35.561Z,51.50
2018-09-18T10:47:04.367Z,51.70
2018-09-18T10:49:32.849Z,52.70
2018-09-18T10:52:01.349Z,53.00
2018-09-18T10:54:29.834Z,52.70
2018-09-18T10:56:58.310Z,52.10
2018-09-18T10:59:27.131Z,52.70
2018-09-18T11:01:55.766Z,52.50
2018-09-18T11:04:24.183Z,53.60
2018-09-18T11:06:52.741Z,51.80
2018-09-18T11:09:21.277Z,52.50
2018-09-18T11:11:49.806Z,51.80
2018-09-18T11:14:18.398Z,51.30
2018-09-18T11:16:46.920Z,51.60
2018-09-18T11:19:15.416Z,51.20
2018-09-18T11:21:43.974Z,51.80
2018-09-18T11:24:12.456Z,51.60
2018-09-18T11:26:40.950Z,51.30
2018-09-18T11:29:09.417Z,51.10
2018-09-18T11:31:37.908Z,51.00
2018-09-18T11:34:06.387Z,50.90
2018-09-18T11:36:34.879Z,51.10
2018-09-18T11:39:03.679Z,51.10
2018-09-18T11:41:32.184Z,51.10
2018-09-18T11:44:00.656Z,51.00
2018-09-18T11:46:29.201Z,49.80
2018-09-18T11:48:57.715Z,49.10
2018-09-18T11:51:26.278Z,48.20
2018-09-18T11:53:54.758Z,49.00
2018-09-18T11:56:23.266Z,48.60
2018-09-18T11:58:51.832Z,48.00
2018-09-18T12:01:20.326Z,47.30
2018-09-18T12:03:48.812Z,48.10
2018-09-18T12:06:17.535Z,47.40
2018-09-18T12:08:46.041Z,47.40
2018-09-18T12:11:14.606Z,47.30
2018-09-18T12:13:43.171Z,48.20
2018-09-18T12:16:11.752Z,47.00
2018-09-18T12:18:40.221Z,47.10
2018-09-18T12:21:08.709Z,46.80
2018-09-18T12:23:37.199Z,46.40
2018-09-18T12:26:05.683Z,47.10
2018-09-18T12:28:34.254Z,45.50
2018-09-18T12:31:02.692Z,45.00
2018-09-18T12:33:31.210Z,43.80
2018-09-18T12:35:59.712Z,42.90
2018-09-18T12:38:28.235Z,43.10
2018-09-18T12:40:56.715Z,42.50
2018-09-18T12:43:25.258Z,43.30
2018-09-18T12:45:53.758Z,44.20
2018-09-18T12:48:22.231Z,41.30
2018-09-18T12:50:50.747Z,42.10
2018-09-18T12:53:19.228Z,41.90
2018-09-18T12:55:47.709Z,42.10
2018-09-18T12:58:16.183Z,41.30
2018-09-18T13:00:44.688Z,41.10
2018-09-18T13:03:13.176Z,41.50
2018-09-18T13:05:41.651Z,42.10
2018-09-18T13:08:10.215Z,40.60
2018-09-18T13:10:38.640Z,40.90
2018-09-18T13:13:07.120Z,41.30
2018-09-18T13:15:35.628Z,41.50
2018-09-18T13:18:04.119Z,41.10
2018-09-18T13:20:32.591Z,42.00
2018-09-18T13:23:01.093Z,41.60
2018-09-18T13:25:29.607Z,42.00
2018-09-18T13:27:58.226Z,42.30
2018-09-18T13:30:26.708Z,42.20
2018-09-18T13:32:55.239Z,42.70
2018-09-18T13:35:23.756Z,43.50
2018-09-18T13:37:52.230Z,42.60
2018-09-18T13:40:20.702Z,42.90
2018-09-18T13:42:49.156Z,42.80
2018-09-18T13:45:17.632Z,43.20
2018-09-18T13:47:46.117Z,43.90
2018-09-18T13:50:14.645Z,41.90
2018-09-18T13:52:43.132Z,42.90
2018-09-18T13:55:11.711Z,42.80
2018-09-18T13:57:40.219Z,43.30
2018-09-18T14:00:09.743Z,43.20
2018-09-18T14:02:38.465Z,43.00
2018-09-18T14:05:06.941Z,43.80
2018-09-18T14:07:35.436Z,43.40
2018-09-18T14:10:04.038Z,42.50
2018-09-18T14:12:32.531Z,42.20
2018-09-18T14:15:01.045Z,42.10
2018-09-18T14:17:29.511Z,42.50
2018-09-18T14:19:57.968Z,41.40
2018-09-18T14:22:26.459Z,42.00
2018-09-18T14:24:54.929Z,42.40
2018-09-18T14:27:23.719Z,42.70
2018-09-18T14:29:52.184Z,42.50
2018-09-18T14:32:20.731Z,42.30
2018-09-18T14:34:49.234Z,41.90
2018-09-18T14:37:17.707Z,41.30
2018-09-18T14:39:46.171Z,41.50
2018-09-18T14:42:14.671Z,42.00
2018-09-18T14:44:43.166Z,42.40
2018-09-18T14:47:11.659Z,41.90
2018-09-18T14:49:40.127Z,42.60
2018-09-18T14:52:08.795Z,42.30
2018-09-18T14:54:37.334Z,42.50
2018-09-18T14:57:05.853Z,42.80
2018-09-18T14:59:34.317Z,42.80
2018-09-18T15:02:02.788Z,42.40
2018-09-18T15:04:31.239Z,42.70
2018-09-18T15:06:59.729Z,43.00
2018-09-18T15:09:28.175Z,42.90
2018-09-18T15:11:56.732Z,42.70
2018-09-18T15:14:25.231Z,42.90
2018-09-18T15:16:53.699Z,43.70
2018-09-18T15:19:22.154Z,42.90
2018-09-18T15:21:50.664Z,43.10
2018-09-18T15:24:19.150Z,43.90
2018-09-18T15:26:47.623Z,44.30
2018-09-18T15:29:16.108Z,44.10
2018-09-18T15:31:44.596Z,44.20
2018-09-18T15:34:13.386Z,43.60
2018-09-18T15:36:41.878Z,44.80
2018-09-18T15:39:10.346Z,44.90
2018-09-18T15:41:38.845Z,45.10
2018-09-18T15:44:07.367Z,44.10
2018-09-18T15:46:36.135Z,43.10
2018-09-18T15:49:04.863Z,45.40
2018-09-18T15:51:33.385Z,46.50
2018-09-18T15:54:02.034Z,46.10
2018-09-18T15:56:30.557Z,47.50
2018-09-18T15:58:59.069Z,45.40
2018-09-18T16:01:27.598Z,47.00
2018-09-18T16:03:56.128Z,47.80
2018-09-18T16:06:24.607Z,48.30
2018-09-18T16:08:53.335Z,48.20
2018-09-18T16:11:21.828Z,48.60
2018-09-18T16:13:50.395Z,47.50
2018-09-18T16:16:19.061Z,48.70
2018-09-18T16:18:47.548Z,49.20
2018-09-18T16:21:16.051Z,49.90
2018-09-18T16:23:44.619Z,49.60
2018-09-18T16:26:13.114Z,50.90
2018-09-18T16:28:41.602Z,52.20
2018-09-18T16:31:10.046Z,52.90
2018-09-18T16:33:38.527Z,52.50
2018-09-18T16:36:07.515Z,52.20
2018-09-18T16:38:36.724Z,52.70
2018-09-18T16:41:05.630Z,53.40
2018-09-18T16:43:34.486Z,53.20
2018-09-18T16:46:03.015Z,53.60
2018-09-18T16:48:31.531Z,53.60
2018-09-18T16:51:00.008Z,53.90
2018-09-18T16:53:28.487Z,54.10
2018-09-18T16:55:56.992Z,54.50
2018-09-18T16:58:25.495Z,55.30
2018-09-18T17:00:54.063Z,56.00
2018-09-18T17:03:22.537Z,55.90
2018-09-18T17:05:51.020Z,56.00
2018-09-18T17:08:19.484Z,57.20
2018-09-18T17:10:47.979Z,57.90
2018-09-18T17:13:16.481Z,58.80
2018-09-18T17:15:45.269Z,58.60
2018-09-18T17:18:13.743Z,58.90
2018-09-18T17:20:42.264Z,59.20
2018-09-18T17:23:10.755Z,58.70
2018-09-18T17:25:39.203Z,57.90
2018-09-18T17:28:07.699Z,59.70
2018-09-18T17:30:36.248Z,60.40
2018-09-18T17:33:05.007Z,61.00
2018-09-18T17:35:33.845Z,62.00
2018-09-18T17:38:02.281Z,62.80
2018-09-18T17:40:30.769Z,62.90
2018-09-18T17:42:59.234Z,63.10
2018-09-18T17:45:27.726Z,63.40
2018-09-18T17:47:56.209Z,63.60
2018-09-18T17:50:24.745Z,63.90
2018-09-18T17:52:53.224Z,64.60
2018-09-18T17:55:21.715Z,63.70
2018-09-18T17:57:50.211Z,64.30
2018-09-18T18:00:18.687Z,66.50
2018-09-18T18:02:47.174Z,67.00
2018-09-18T18:05:15.673Z,67.20
2018-09-18T18:07:44.155Z,66.40
2018-09-18T18:10:12.759Z,66.70
2018-09-18T18:12:41.431Z,66.20
2018-09-18T18:15:09.894Z,66.80
2018-09-18T18:17:38.585Z,67.40
2018-09-18T18:20:07.134Z,67.70
2018-09-18T18:22:35.623Z,67.80
2018-09-18T18:25:04.080Z,66.90
2018-09-18T18:27:32.551Z,67.20
2018-09-18T18:30:01.038Z,68.00
2018-09-18T18:32:29.549Z,66.70
2018-09-18T18:34:58.071Z,66.40
2018-09-18T18:37:26.578Z,66.90
2018-09-18T18:39:55.133Z,67.50
2018-09-18T18:42:23.623Z,67.70
2018-09-18T18:44:52.103Z,68.30
2018-09-18T18:47:20.594Z,68.20
2018-09-18T18:49:49.067Z,68.30
2018-09-18T18:52:17.565Z,68.70
2018-09-18T18:54:46.125Z,68.70
2018-09-18T18:57:14.558Z,69.40
2018-09-18T18:59:43.028Z,68.40
2018-09-18T19:02:11.548Z,68.60
2018-09-18T19:04:40.039Z,69.00
2018-09-18T19:07:08.501Z,69.20
2018-09-18T19:09:37.007Z,69.70
2018-09-18T19:12:05.518Z,69.70
2018-09-18T19:14:34.055Z,69.90
2018-09-18T19:17:02.503Z,69.90
2018-09-18T19:19:30.994Z,69.20
2018-09-18T19:21:59.741Z,70.10
2018-09-18T19:24:28.220Z,70.50
2018-09-18T19:26:57.000Z,69.90
2018-09-18T19:29:25.569Z,71.00
2018-09-18T19:31:54.052Z,71.70
2018-09-18T19:34:22.536Z,71.00
2018-09-18T19:36:51.006Z,71.40
2018-09-18T19:39:19.575Z,71.20
2018-09-18T19:41:48.062Z,71.50
2018-09-18T19:44:16.567Z,71.80
2018-09-18T19:46:45.061Z,71.70
2018-09-18T19:49:13.555Z,72.10
2018-09-18T19:51:42.080Z,72.30
2018-09-18T19:54:10.788Z,72.20
2018-09-18T19:56:39.272Z,72.00
2018-09-18T19:59:07.727Z,71.70
2018-09-18T20:01:36.273Z,72.70
2018-09-18T20:04:04.738Z,72.60
2018-09-18T20:06:33.199Z,72.80
2018-09-18T20:09:01.998Z,73.20
2018-09-18T20:11:30.844Z,72.90
2018-09-18T20:13:59.338Z,73.10
2018-09-18T20:16:27.845Z,73.00
2018-09-18T20:18:56.335Z,72.90
2018-09-18T20:21:25.159Z,73.10
2018-09-18T20:23:53.650Z,73.10
2018-09-18T20:26:22.152Z,73.80
2018-09-18T20:28:51.300Z,73.30
2018-09-18T20:31:19.771Z,73.90
2018-09-18T20:33:48.607Z,74.10
2018-09-18T20:36:17.196Z,74.60
2018-09-18T20:38:45.640Z,74.50
2018-09-18T20:41:14.129Z,75.10
2018-09-18T20:43:42.595Z,75.20
2018-09-18T20:46:11.075Z,75.70
2018-09-18T20:48:39.538Z,75.60
2018-09-18T20:51:08.016Z,75.60
2018-09-18T20:53:36.506Z,75.40
2018-09-18T20:56:05.003Z,75.80
2018-09-18T20:58:33.483Z,75.60
2018-09-18T21:01:01.988Z,75.80
2018-09-18T21:03:30.461Z,75.90
2018-09-18T21:05:58.924Z,75.80
2018-09-18T21:08:27.516Z,76.00
2018-09-18T21:10:55.967Z,75.60
2018-09-18T21:13:24.442Z,75.70
2018-09-18T21:15:52.903Z,75.20
2018-09-18T21:18:21.403Z,75.40
2018-09-18T21:20:49.892Z,75.30
2018-09-18T21:23:18.604Z,75.90
2018-09-18T21:26:03.932Z,75.50
2018-09-18T21:28:32.489Z,75.80
2018-09-18T21:31:01.199Z,75.80
2018-09-18T21:33:30.055Z,75.50
2018-09-18T21:35:58.769Z,76.10
2018-09-18T21:38:27.760Z,76.10
2018-09-18T21:40:56.532Z,76.10
2018-09-18T21:43:25.234Z,76.30
2018-09-18T21:45:53.716Z,76.20
2018-09-18T21:48:22.188Z,76.50
2018-09-18T21:50:50.697Z,76.20
2018-09-18T21:53:19.162Z,76.50
2018-09-18T21:55:47.938Z,76.30
2018-09-18T21:58:16.728Z,76.20
2018-09-18T22:00:45.275Z,76.50
2018-09-18T22:03:13.767Z,76.50
2018-09-18T22:05:42.281Z,76.60
2018-09-18T22:08:10.786Z,76.70
2018-09-18T22:10:39.272Z,76.70
2018-09-18T22:13:07.766Z,76.70
2018-09-18T22:15:36.252Z,76.40
2018-09-18T22:18:04.740Z,76.80
2018-09-18T22:20:33.222Z,76.10
2018-09-18T22:23:01.739Z,76.90
2018-09-18T22:25:30.242Z,77.00
2018-09-18T22:27:58.719Z,77.30
2018-09-18T22:30:27.192Z,77.10
2018-09-18T22:32:55.652Z,77.00
2018-09-18T22:35:24.102Z,77.50
2018-09-18T22:37:52.578Z,77.90
2018-09-18T22:40:21.340Z,78.00
2018-09-18T22:42:49.827Z,78.00
2018-09-18T22:45:18.594Z,78.00
2018-09-18T22:47:47.080Z,77.80
2018-09-18T22:50:15.621Z,78.10
2018-09-18T22:52:44.115Z,77.50
2018-09-18T22:55:12.640Z,78.40
2018-09-18T22:57:41.117Z,78.20
2018-09-18T23:00:10.063Z,78.80
2018-09-18T23:02:38.574Z,79.10
2018-09-18T23:05:07.553Z,79.30
2018-09-18T23:07:36.049Z,79.30
2018-09-18T23:10:04.573Z,79.30
2018-09-18T23:12:33.101Z,79.30
2018-09-18T23:15:01.715Z,79.40
2018-09-18T23:17:30.188Z,79.50
2018-09-18T23:19:58.679Z,79.40
2018-09-18T23:22:27.172Z,79.90
2018-09-18T23:24:55.647Z,79.80
2018-09-18T23:27:24.148Z,80.40
2018-09-18T23:29:52.646Z,80.00
2018-09-18T23:32:21.152Z,80.20
2018-09-18T23:34:49.892Z,80.30
2018-09-18T23:37:18.367Z,80.50
2018-09-18T23:39:47.150Z,81.00
2018-09-18T23:42:15.708Z,81.30
2018-09-18T23:44:44.131Z,81.00
2018-09-18T23:47:12.637Z,81.70
2018-09-18T23:49:41.124Z,82.10
2018-09-18T23:52:09.624Z,81.90
2018-09-18T23:54:38.099Z,82.30
2018-09-18T23:57:06.622Z,82.40
2018-09-18T23:59:35.127Z,82.60
